Time;durP1;ratioP1;P1;durP2;ratioP2;P2;SDS_P1;SDS_P2;PMS_P1;PMS_P2;Temp;Humidity;BMP_temperature;BMP_pressure;BME280_temperature;BME280_humidity;BME280_pressure;Samples;Min_cycle;Max_cycle;Signal;HPM_P1;HPM_P2
2022/02/18 00:00:52;;;;;;;2.80;1.80;;;;;;;;;;758039;184;628220;-60
2022/02/18 00:03:17;;;;;;;4.43;2.10;;;;;;;;;;758088;184;655369;-61
2022/02/18 00:05:43;;;;;;;4.10;2.40;;;;;;;;;;753514;184;630323;-61
2022/02/18 00:08:08;;;;;;;6.63;2.67;;;;;;;;;;748337;184;635589;-60
2022/02/18 00:10:34;;;;;;;3.83;2.90;;;;;;;;;;748452;184;627276;-61
2022/02/18 00:13:00;;;;;;;6.87;3.20;;;;;;;;;;760325;184;633714;-61
2022/02/18 00:15:26;;;;;;;5.97;2.43;;;;;;;;;;763196;184;630842;-61
2022/02/18 00:17:52;;;;;;;6.47;2.40;;;;;;;;;;756678;184;621115;-61
2022/02/18 00:20:18;;;;;;;4.77;2.60;;;;;;;;;;761064;184;622392;-62
2022/02/18 00:22:43;;;;;;;4.43;2.00;;;;;;;;;;749866;184;630491;-61
2022/02/18 00:25:10;;;;;;;5.67;2.90;;;;;;;;;;754623;185;640879;-61
2022/02/18 00:27:36;;;;;;;12.73;3.47;;;;;;;;;;752066;186;622933;-61
2022/02/18 00:30:01;;;;;;;6.63;3.13;;;;;;;;;;753906;184;638138;-60
2022/02/18 00:32:27;;;;;;;10.17;3.70;;;;;;;;;;761893;183;629781;-60
2022/02/18 00:34:53;;;;;;;6.03;2.60;;;;;;;;;;767741;179;620921;-60
2022/02/18 00:37:20;;;;;;;11.67;2.73;;;;;;;;;;758946;184;636295;-60
2022/02/18 00:39:45;;;;;;;9.10;3.50;;;;;;;;;;753756;184;625670;-61
2022/02/18 00:42:11;;;;;;;6.40;3.27;;;;;;;;;;754169;184;637349;-61
2022/02/18 00:44:37;;;;;;;5.07;2.60;;;;;;;;;;747723;184;616207;-61
2022/02/18 00:47:03;;;;;;;5.77;3.20;;;;;;;;;;754912;183;630607;-61
2022/02/18 00:49:28;;;;;;;9.77;3.10;;;;;;;;;;757476;183;617619;-61
2022/02/18 00:51:54;;;;;;;8.80;2.87;;;;;;;;;;750300;183;634299;-61
2022/02/18 00:54:20;;;;;;;7.95;4.30;;;;;;;;;;753819;183;651471;-61
2022/02/18 00:56:46;;;;;;;6.47;3.70;;;;;;;;;;768410;183;635298;-61
2022/02/18 00:59:12;;;;;;;7.87;2.73;;;;;;;;;;763064;184;615319;-60
2022/02/18 01:01:38;;;;;;;6.97;3.13;;;;;;;;;;757128;185;628498;-62
2022/02/18 01:04:04;;;;;;;6.90;3.67;;;;;;;;;;756115;184;626151;-61
2022/02/18 01:06:29;;;;;;;5.27;2.63;;;;;;;;;;758940;184;637207;-62
2022/02/18 01:08:56;;;;;;;8.53;2.87;;;;;;;;;;763248;184;642659;-62
2022/02/18 01:11:21;;;;;;;9.97;3.13;;;;;;;;;;762081;184;619285;-60
2022/02/18 01:13:47;;;;;;;9.57;3.20;;;;;;;;;;764629;184;618810;-61
2022/02/18 01:16:14;;;;;;;8.90;3.00;;;;;;;;;;752742;184;619908;-61
2022/02/18 01:18:39;;;;;;;6.60;3.50;;;;;;;;;;752956;184;629087;-61
2022/02/18 01:21:04;;;;;;;9.30;3.47;;;;;;;;;;757420;184;631730;-61
2022/02/18 01:23:30;;;;;;;6.10;3.47;;;;;;;;;;761617;184;642196;-61
2022/02/18 01:25:56;;;;;;;7.03;3.57;;;;;;;;;;753280;183;684716;-61
2022/02/18 01:28:22;;;;;;;6.57;3.70;;;;;;;;;;759601;184;617180;-61
2022/02/18 01:30:48;;;;;;;8.13;3.70;;;;;;;;;;750798;184;613383;-61
2022/02/18 01:33:14;;;;;;;5.50;3.45;;;;;;;;;;763147;184;627798;-61
2022/02/18 01:35:40;;;;;;;6.30;3.43;;;;;;;;;;764872;184;617390;-61
2022/02/18 01:38:06;;;;;;;10.00;3.93;;;;;;;;;;755821;184;679611;-61
2022/02/18 01:40:31;;;;;;;9.83;3.30;;;;;;;;;;752862;184;626866;-59
2022/02/18 01:42:57;;;;;;;8.53;3.10;;;;;;;;;;751479;185;627159;-59
2022/02/18 01:45:23;;;;;;;9.53;4.60;;;;;;;;;;756703;184;643319;-60
2022/02/18 01:47:49;;;;;;;7.70;3.07;;;;;;;;;;755411;184;619371;-60
2022/02/18 01:50:15;;;;;;;9.80;4.40;;;;;;;;;;756013;183;617683;-60
2022/02/18 01:52:41;;;;;;;6.63;4.23;;;;;;;;;;763054;183;629642;-59
2022/02/18 01:55:10;;;;;;;7.70;3.53;;;;;;;;;;749846;184;631418;-60
2022/02/18 01:57:32;;;;;;;6.97;3.40;;;;;;;;;;749834;184;623206;-60
2022/02/18 01:59:58;;;;;;;7.07;3.73;;;;;;;;;;755884;183;623431;-59
2022/02/18 02:02:24;;;;;;;10.47;4.40;;;;;;;;;;759697;183;631919;-59
2022/02/18 02:04:50;;;;;;;18.47;4.00;;;;;;;;;;753685;185;628416;-59
2022/02/18 02:07:16;;;;;;;5.50;3.40;;;;;;;;;;757097;183;622421;-59
2022/02/18 02:09:42;;;;;;;7.33;3.00;;;;;;;;;;764080;183;629082;-59
2022/02/18 02:12:08;;;;;;;7.33;3.47;;;;;;;;;;755864;184;617056;-59
2022/02/18 02:14:34;;;;;;;5.83;3.50;;;;;;;;;;761586;184;636281;-59
2022/02/18 02:17:00;;;;;;;13.87;4.40;;;;;;;;;;759128;184;640247;-59
2022/02/18 02:19:27;;;;;;;5.33;2.57;;;;;;;;;;750850;184;632795;-59
2022/02/18 02:21:51;;;;;;;5.77;2.87;;;;;;;;;;751082;183;628578;-59
2022/02/18 02:24:17;;;;;;;7.10;2.70;;;;;;;;;;762313;183;635114;-58
2022/02/18 02:26:43;;;;;;;9.50;3.73;;;;;;;;;;762915;183;618746;-59
2022/02/18 02:29:10;;;;;;;7.47;3.67;;;;;;;;;;752908;184;625984;-59
2022/02/18 02:31:36;;;;;;;22.80;3.93;;;;;;;;;;751511;184;627018;-59
2022/02/18 02:34:03;;;;;;;9.43;3.30;;;;;;;;;;754286;184;623120;-58
2022/02/18 02:36:27;;;;;;;7.10;3.57;;;;;;;;;;748660;183;631559;-59
2022/02/18 02:38:53;;;;;;;11.77;3.60;;;;;;;;;;751840;183;629941;-59
2022/02/18 02:41:19;;;;;;;8.43;3.10;;;;;;;;;;769968;184;616109;-59
2022/02/18 02:43:45;;;;;;;9.50;2.80;;;;;;;;;;754243;185;621269;-59
2022/02/18 02:46:11;;;;;;;5.63;3.70;;;;;;;;;;761853;184;626942;-59
2022/02/18 02:48:37;;;;;;;6.45;2.40;;;;;;;;;;753983;184;616870;-58
2022/02/18 02:51:04;;;;;;;5.70;2.90;;;;;;;;;;756553;184;648196;-59
2022/02/18 02:53:29;;;;;;;6.62;3.35;;;;;;;;;;751492;184;617350;-59
2022/02/18 02:55:54;;;;;;;5.17;3.10;;;;;;;;;;752869;184;636424;-59
2022/02/18 02:58:20;;;;;;;6.97;2.60;;;;;;;;;;756692;183;620735;-59
2022/02/18 03:00:46;;;;;;;5.30;2.77;;;;;;;;;;751789;186;636640;-58
2022/02/18 03:03:12;;;;;;;9.23;3.90;;;;;;;;;;754671;184;625453;-59
2022/02/18 03:05:38;;;;;;;10.60;3.30;;;;;;;;;;767365;184;617129;-59
2022/02/18 03:08:04;;;;;;;6.00;2.70;;;;;;;;;;762035;184;628017;-59
2022/02/18 03:10:30;;;;;;;10.73;3.37;;;;;;;;;;758207;184;614602;-59
2022/02/18 03:12:55;;;;;;;12.87;3.60;;;;;;;;;;762931;183;644184;-59
2022/02/18 03:15:21;;;;;;;9.60;3.27;;;;;;;;;;751913;184;644007;-59
2022/02/18 03:17:47;;;;;;;7.50;2.97;;;;;;;;;;762316;183;620034;-59
2022/02/18 03:20:13;;;;;;;10.40;4.00;;;;;;;;;;755500;184;631365;-59
2022/02/18 03:22:39;;;;;;;8.30;3.60;;;;;;;;;;761762;183;624324;-59
2022/02/18 03:25:05;;;;;;;8.20;3.27;;;;;;;;;;763508;183;628359;-60
2022/02/18 03:27:31;;;;;;;9.33;3.83;;;;;;;;;;757220;184;626974;-58
2022/02/18 03:29:57;;;;;;;15.13;3.10;;;;;;;;;;765939;183;633185;-58
2022/02/18 03:32:22;;;;;;;12.53;3.80;;;;;;;;;;754544;185;630276;-59
2022/02/18 03:34:49;;;;;;;9.93;4.10;;;;;;;;;;754180;184;633567;-59
2022/02/18 03:37:14;;;;;;;6.50;2.70;;;;;;;;;;758508;184;626815;-59
2022/02/18 03:39:40;;;;;;;10.33;4.60;;;;;;;;;;752944;184;626755;-59
2022/02/18 03:42:06;;;;;;;8.43;2.97;;;;;;;;;;753782;184;632195;-59
2022/02/18 03:44:34;;;;;;;7.15;3.37;;;;;;;;;;752276;183;630679;-58
2022/02/18 03:46:58;;;;;;;5.57;3.60;;;;;;;;;;750678;182;633846;-59
2022/02/18 03:49:24;;;;;;;9.37;4.70;;;;;;;;;;755994;183;635737;-59
2022/02/18 03:51:50;;;;;;;9.00;3.40;;;;;;;;;;755645;184;634559;-60
2022/02/18 03:54:16;;;;;;;12.20;4.57;;;;;;;;;;757167;184;636546;-59
2022/02/18 03:56:42;;;;;;;7.60;3.60;;;;;;;;;;759872;184;629219;-59
2022/02/18 03:59:07;;;;;;;14.03;4.73;;;;;;;;;;749762;184;617265;-59
2022/02/18 04:01:33;;;;;;;9.13;4.70;;;;;;;;;;762015;184;627626;-59
2022/02/18 04:04:00;;;;;;;10.30;4.70;;;;;;;;;;754744;184;631795;-59
2022/02/18 04:06:26;;;;;;;7.23;3.40;;;;;;;;;;762485;184;625782;-60
2022/02/18 04:08:53;;;;;;;10.93;4.63;;;;;;;;;;753287;184;625505;-59
2022/02/18 04:11:18;;;;;;;9.60;3.57;;;;;;;;;;751598;184;625798;-59
2022/02/18 04:13:43;;;;;;;5.83;3.10;;;;;;;;;;757532;184;623769;-59
2022/02/18 04:16:09;;;;;;;7.73;3.23;;;;;;;;;;750988;184;631044;-59
2022/02/18 04:18:35;;;;;;;5.00;3.27;;;;;;;;;;759858;184;627873;-60
2022/02/18 04:21:01;;;;;;;8.80;3.23;;;;;;;;;;758752;183;629472;-60
2022/02/18 04:23:27;;;;;;;5.63;3.00;;;;;;;;;;760230;183;635387;-59
2022/02/18 04:25:53;;;;;;;5.17;3.17;;;;;;;;;;761453;184;627151;-60
2022/02/18 04:28:19;;;;;;;6.73;2.93;;;;;;;;;;758715;184;634029;-60
2022/02/18 04:30:44;;;;;;;9.60;3.23;;;;;;;;;;763549;184;617019;-61
2022/02/18 04:33:15;;;;;;;6.30;3.00;;;;;;;;;;763783;184;638987;-60
2022/02/18 04:35:36;;;;;;;6.03;2.53;;;;;;;;;;754433;183;630896;-60
2022/02/18 04:38:02;;;;;;;7.30;2.83;;;;;;;;;;753114;184;702937;-60
2022/02/18 04:40:28;;;;;;;12.00;3.27;;;;;;;;;;759808;184;627656;-59
2022/02/18 04:42:54;;;;;;;4.30;2.47;;;;;;;;;;767949;179;712684;-60
2022/02/18 04:45:19;;;;;;;16.57;3.00;;;;;;;;;;753783;184;635559;-60
2022/02/18 04:47:45;;;;;;;15.10;3.60;;;;;;;;;;755560;184;624264;-60
2022/02/18 04:50:11;;;;;;;5.73;2.50;;;;;;;;;;761959;184;627287;-60
2022/02/18 04:52:37;;;;;;;7.13;2.97;;;;;;;;;;759359;184;638809;-60
2022/02/18 04:55:05;;;;;;;10.07;3.00;;;;;;;;;;755861;185;619264;-60
2022/02/18 04:57:29;;;;;;;9.13;3.87;;;;;;;;;;752638;186;625035;-60
2022/02/18 04:59:55;;;;;;;10.70;2.83;;;;;;;;;;752156;185;678384;-60
2022/02/18 05:02:21;;;;;;;13.77;3.50;;;;;;;;;;753708;184;631000;-60
2022/02/18 05:04:47;;;;;;;8.20;2.80;;;;;;;;;;757500;184;702030;-60
2022/02/18 05:07:12;;;;;;;6.63;3.50;;;;;;;;;;756162;184;646677;-60
2022/02/18 05:09:38;;;;;;;9.57;3.53;;;;;;;;;;754014;184;618110;-61
2022/02/18 05:12:04;;;;;;;16.23;4.20;;;;;;;;;;756220;184;624432;-61
2022/02/18 05:14:30;;;;;;;9.13;4.67;;;;;;;;;;759774;184;636174;-61
2022/02/18 05:16:56;;;;;;;6.40;3.10;;;;;;;;;;757088;184;625181;-61
2022/02/18 05:19:22;;;;;;;8.13;3.53;;;;;;;;;;754328;184;667326;-61
2022/02/18 05:21:48;;;;;;;6.20;3.00;;;;;;;;;;758868;184;631234;-62
2022/02/18 05:24:13;;;;;;;6.57;3.47;;;;;;;;;;758917;184;629799;-61
2022/02/18 05:26:39;;;;;;;7.37;3.43;;;;;;;;;;757546;184;638072;-61
2022/02/18 05:29:05;;;;;;;12.67;3.93;;;;;;;;;;753109;184;633998;-62
2022/02/18 05:31:31;;;;;;;19.63;4.43;;;;;;;;;;755419;184;622802;-62
2022/02/18 05:34:00;;;;;;;10.93;3.50;;;;;;;;;;757842;183;640124;-62
2022/02/18 05:36:27;;;;;;;6.10;3.20;;;;;;;;;;759478;183;630760;-63
2022/02/18 05:38:51;;;;;;;13.00;3.10;;;;;;;;;;758505;184;636661;-66
2022/02/18 05:41:17;;;;;;;10.93;3.90;;;;;;;;;;766448;183;641465;-65
2022/02/18 05:43:43;;;;;;;14.37;3.63;;;;;;;;;;764595;183;624180;-66
2022/02/18 05:46:09;;;;;;;9.20;3.77;;;;;;;;;;756401;184;633940;-67
2022/02/18 05:48:35;;;;;;;11.73;3.50;;;;;;;;;;753684;184;636808;-67
2022/02/18 05:51:01;;;;;;;14.27;4.50;;;;;;;;;;755450;183;627778;-67
2022/02/18 05:53:27;;;;;;;11.10;3.70;;;;;;;;;;752200;184;623107;-67
2022/02/18 05:55:53;;;;;;;14.50;4.27;;;;;;;;;;752968;183;624553;-67
2022/02/18 05:58:19;;;;;;;11.97;4.27;;;;;;;;;;762820;183;615196;-67
2022/02/18 06:00:45;;;;;;;5.77;3.03;;;;;;;;;;750100;184;642667;-66
2022/02/18 06:03:10;;;;;;;7.70;3.67;;;;;;;;;;758071;183;615583;-67
2022/02/18 06:05:36;;;;;;;13.93;4.33;;;;;;;;;;756050;184;638708;-67
2022/02/18 06:08:02;;;;;;;9.53;3.70;;;;;;;;;;749970;186;626452;-64
2022/02/18 06:10:28;;;;;;;10.33;4.37;;;;;;;;;;762456;184;641371;-64
2022/02/18 06:12:54;;;;;;;7.10;3.67;;;;;;;;;;755939;184;624036;-65
2022/02/18 06:15:20;;;;;;;9.00;3.97;;;;;;;;;;754806;184;642358;-64
2022/02/18 06:17:46;;;;;;;8.77;3.60;;;;;;;;;;753601;184;615377;-64
2022/02/18 06:20:11;;;;;;;15.10;4.30;;;;;;;;;;757056;184;619996;-64
2022/02/18 06:22:37;;;;;;;9.50;4.50;;;;;;;;;;758098;184;628881;-65
2022/02/18 06:25:06;;;;;;;10.43;4.40;;;;;;;;;;766417;184;643409;-64
2022/02/18 06:27:32;;;;;;;11.67;4.17;;;;;;;;;;767636;183;620702;-65
2022/02/18 06:29:58;;;;;;;10.70;4.57;;;;;;;;;;755026;184;630158;-64
2022/02/18 06:32:25;;;;;;;12.63;4.30;;;;;;;;;;751962;186;726834;-63
2022/02/18 06:34:51;;;;;;;19.53;5.17;;;;;;;;;;761755;184;624232;-65
2022/02/18 06:37:16;;;;;;;14.80;5.60;;;;;;;;;;750925;185;614953;-65
2022/02/18 06:39:42;;;;;;;11.60;5.17;;;;;;;;;;750810;183;625114;-64
2022/02/18 06:42:08;;;;;;;9.23;4.73;;;;;;;;;;753911;184;633439;-64
2022/02/18 06:44:34;;;;;;;13.43;5.67;;;;;;;;;;754037;183;637518;-65
2022/02/18 06:47:00;;;;;;;16.50;5.30;;;;;;;;;;758263;183;638264;-64
2022/02/18 06:49:26;;;;;;;14.10;5.13;;;;;;;;;;760360;183;633721;-63
2022/02/18 06:51:55;;;;;;;11.73;4.87;;;;;;;;;;765254;180;627144;-64
2022/02/18 06:54:17;;;;;;;9.37;5.10;;;;;;;;;;749005;183;614685;-64
2022/02/18 06:56:43;;;;;;;7.53;4.27;;;;;;;;;;751067;183;627688;-64
2022/02/18 06:59:09;;;;;;;11.20;4.80;;;;;;;;;;757802;184;614092;-63
2022/02/18 07:01:35;;;;;;;31.13;12.57;;;;;;;;;;754923;184;617733;-64
2022/02/18 07:04:01;;;;;;;18.70;9.73;;;;;;;;;;747759;184;2619394;-63
2022/02/18 07:06:27;;;;;;;19.57;9.20;;;;;;;;;;750014;184;632498;-63
2022/02/18 07:08:53;;;;;;;22.53;8.87;;;;;;;;;;763076;183;630462;-61
2022/02/18 07:11:21;;;;;;;13.17;7.80;;;;;;;;;;764979;184;631372;-61
2022/02/18 07:13:44;;;;;;;18.33;6.27;;;;;;;;;;761036;184;636396;-61
2022/02/18 07:16:10;;;;;;;14.40;7.10;;;;;;;;;;756670;184;629298;-62
2022/02/18 07:18:36;;;;;;;21.00;7.67;;;;;;;;;;753693;184;630762;-63
2022/02/18 07:21:02;;;;;;;33.63;17.37;;;;;;;;;;761342;184;622232;-63
2022/02/18 07:23:27;;;;;;;29.70;16.73;;;;;;;;;;755805;183;617394;-63
2022/02/18 07:25:53;;;;;;;54.40;29.93;;;;;;;;;;748109;184;626130;-63
2022/02/18 07:28:20;;;;;;;87.23;35.67;;;;;;;;;;747357;184;626582;-62
2022/02/18 07:30:45;;;;;;;39.47;16.57;;;;;;;;;;762127;184;614851;-61
2022/02/18 07:33:11;;;;;;;23.20;9.47;;;;;;;;;;759138;184;635397;-62
2022/02/18 07:35:37;;;;;;;107.37;35.47;;;;;;;;;;761921;184;617216;-62
2022/02/18 07:38:03;;;;;;;52.27;19.40;;;;;;;;;;766754;184;634383;-62
2022/02/18 07:40:29;;;;;;;18.00;7.70;;;;;;;;;;754643;184;702019;-62
2022/02/18 07:42:54;;;;;;;47.13;20.67;;;;;;;;;;750928;184;634122;-62
2022/02/18 07:45:20;;;;;;;17.63;9.90;;;;;;;;;;752465;185;686355;-60
2022/02/18 07:47:46;;;;;;;20.73;8.90;;;;;;;;;;760827;184;631448;-62
2022/02/18 07:50:12;;;;;;;16.37;5.57;;;;;;;;;;751794;184;637178;-62
2022/02/18 07:52:39;;;;;;;12.30;4.87;;;;;;;;;;763476;184;632243;-61
2022/02/18 07:55:04;;;;;;;18.30;5.90;;;;;;;;;;758554;185;607153;-62
2022/02/18 07:57:30;;;;;;;10.37;3.50;;;;;;;;;;757601;184;619779;-61
2022/02/18 07:59:56;;;;;;;11.13;4.60;;;;;;;;;;764772;183;619028;-62
2022/02/18 08:02:21;;;;;;;17.77;4.70;;;;;;;;;;757924;184;673085;-62
2022/02/18 08:04:47;;;;;;;11.17;3.73;;;;;;;;;;749758;184;639804;-61
2022/02/18 08:07:13;;;;;;;9.00;3.90;;;;;;;;;;749405;183;627185;-60
2022/02/18 08:09:39;;;;;;;6.90;3.70;;;;;;;;;;761646;184;625684;-60
2022/02/18 08:12:05;;;;;;;8.20;3.83;;;;;;;;;;752216;184;617282;-60
2022/02/18 08:14:31;;;;;;;14.20;4.20;;;;;;;;;;754593;183;631153;-60
2022/02/18 08:16:57;;;;;;;3.70;2.00;;;;;;;;;;752960;183;636846;-60
2022/02/18 08:19:23;;;;;;;8.13;1.90;;;;;;;;;;762232;184;618861;-60
2022/02/18 08:21:48;;;;;;;6.13;1.97;;;;;;;;;;761992;184;633974;-60
2022/02/18 08:24:17;;;;;;;9.80;2.60;;;;;;;;;;756534;184;619968;-60
2022/02/18 08:26:40;;;;;;;5.83;1.90;;;;;;;;;;764431;184;635201;-60
2022/02/18 08:29:06;;;;;;;7.60;2.30;;;;;;;;;;761985;184;637268;-60
2022/02/18 08:31:32;;;;;;;9.53;2.27;;;;;;;;;;756284;185;616064;-62
2022/02/18 08:33:58;;;;;;;7.70;2.83;;;;;;;;;;756571;184;616604;-60
2022/02/18 08:36:23;;;;;;;15.30;3.60;;;;;;;;;;753742;184;616582;-60
2022/02/18 08:38:49;;;;;;;5.20;1.87;;;;;;;;;;750824;184;622860;-60
2022/02/18 08:41:15;;;;;;;5.93;2.07;;;;;;;;;;763657;184;627010;-59
2022/02/18 08:43:41;;;;;;;6.83;2.30;;;;;;;;;;772725;181;631565;-59
2022/02/18 08:46:07;;;;;;;6.37;2.73;;;;;;;;;;762673;184;622713;-60
2022/02/18 08:48:33;;;;;;;4.20;2.00;;;;;;;;;;752934;184;618644;-59
2022/02/18 08:50:59;;;;;;;6.80;2.03;;;;;;;;;;758597;184;629148;-60
2022/02/18 08:53:24;;;;;;;7.87;1.87;;;;;;;;;;749519;184;652140;-60
2022/02/18 08:55:50;;;;;;;13.80;1.87;;;;;;;;;;756591;184;629671;-60
2022/02/18 08:58:16;;;;;;;6.57;2.53;;;;;;;;;;767734;184;618218;-59
2022/02/18 09:00:42;;;;;;;15.80;2.90;;;;;;;;;;763543;184;629908;-60
2022/02/18 09:03:08;;;;;;;6.97;2.83;;;;;;;;;;758434;184;630168;-59
2022/02/18 09:05:33;;;;;;;11.33;2.97;;;;;;;;;;755927;184;629219;-59
2022/02/18 09:08:00;;;;;;;6.70;2.20;;;;;;;;;;756271;184;624340;-60
2022/02/18 09:10:26;;;;;;;5.73;2.63;;;;;;;;;;754757;183;629127;-60
2022/02/18 09:12:52;;;;;;;13.00;5.40;;;;;;;;;;763876;183;642149;-59
2022/02/18 09:15:19;;;;;;;5.10;2.03;;;;;;;;;;757637;184;637280;-61
2022/02/18 09:17:44;;;;;;;7.40;3.20;;;;;;;;;;766012;183;637276;-60
2022/02/18 09:20:10;;;;;;;7.97;2.70;;;;;;;;;;759512;183;617971;-60
2022/02/18 09:22:35;;;;;;;12.80;2.10;;;;;;;;;;758274;185;627028;-60
2022/02/18 09:25:01;;;;;;;13.43;3.17;;;;;;;;;;759182;184;628391;-60
2022/02/18 09:27:27;;;;;;;7.77;2.80;;;;;;;;;;762743;184;619997;-60
2022/02/18 09:29:53;;;;;;;3.87;2.03;;;;;;;;;;753606;183;626164;-60
2022/02/18 09:32:20;;;;;;;10.33;3.37;;;;;;;;;;750104;183;793878;-60
2022/02/18 09:34:45;;;;;;;4.23;1.70;;;;;;;;;;753167;184;639513;-60
2022/02/18 09:37:16;;;;;;;10.70;2.03;;;;;;;;;;758258;184;625389;-60
2022/02/18 09:39:40;;;;;;;6.30;1.43;;;;;;;;;;760029;183;629293;-60
2022/02/18 09:42:06;;;;;;;6.60;2.20;;;;;;;;;;750538;183;639691;-60
2022/02/18 09:44:32;;;;;;;8.07;2.60;;;;;;;;;;749775;184;617263;-60
2022/02/18 09:46:57;;;;;;;8.90;3.20;;;;;;;;;;751526;185;645263;-60
2022/02/18 09:49:23;;;;;;;4.73;1.97;;;;;;;;;;751687;184;624353;-60
2022/02/18 09:51:49;;;;;;;4.10;2.50;;;;;;;;;;751300;185;615059;-60
2022/02/18 09:54:15;;;;;;;11.90;2.90;;;;;;;;;;757021;185;636780;-60
2022/02/18 09:56:41;;;;;;;7.60;2.03;;;;;;;;;;751493;184;636610;-61
2022/02/18 09:59:08;;;;;;;4.90;2.50;;;;;;;;;;764261;184;638265;-60
2022/02/18 10:01:32;;;;;;;10.70;2.73;;;;;;;;;;748872;184;626937;-63
2022/02/18 10:03:59;;;;;;;7.83;3.00;;;;;;;;;;760454;183;625924;-60
2022/02/18 10:06:27;;;;;;;8.13;2.43;;;;;;;;;;760945;184;626080;-60
2022/02/18 10:08:50;;;;;;;8.07;2.53;;;;;;;;;;751399;184;666817;-59
2022/02/18 10:11:16;;;;;;;14.53;3.40;;;;;;;;;;756038;184;625213;-60
2022/02/18 10:13:43;;;;;;;11.80;2.67;;;;;;;;;;754242;184;636680;-60
2022/02/18 10:16:18;;;;;;;6.13;2.90;;;;;;;;;;762414;184;636905;-60
2022/02/18 10:18:54;;;;;;;12.87;3.20;;;;;;;;;;765124;182;633683;-60
2022/02/18 10:21:20;;;;;;;7.13;2.60;;;;;;;;;;767980;183;623548;-60
2022/02/18 10:23:46;;;;;;;9.80;3.80;;;;;;;;;;748361;187;628016;-60
2022/02/18 10:26:12;;;;;;;7.33;2.80;;;;;;;;;;748428;186;625851;-59
2022/02/18 10:28:37;;;;;;;4.27;2.30;;;;;;;;;;749870;183;631980;-60
2022/02/18 10:31:04;;;;;;;9.10;2.37;;;;;;;;;;766951;183;638658;-60
2022/02/18 10:33:29;;;;;;;6.53;2.13;;;;;;;;;;767051;183;648367;-60
2022/02/18 10:35:57;;;;;;;8.33;2.63;;;;;;;;;;759235;184;618120;-60
2022/02/18 10:38:28;;;;;;;11.47;3.40;;;;;;;;;;754040;184;635508;-60
2022/02/18 10:40:59;;;;;;;9.03;2.50;;;;;;;;;;750739;184;615058;-60
2022/02/18 10:43:25;;;;;;;7.80;2.30;;;;;;;;;;752075;184;616681;-60
2022/02/18 10:45:51;;;;;;;10.30;3.00;;;;;;;;;;748884;183;633349;-60
2022/02/18 10:48:20;;;;;;;4.47;2.30;;;;;;;;;;749379;187;634026;-60
2022/02/18 10:50:43;;;;;;;10.73;1.90;;;;;;;;;;747048;187;634810;-60
2022/02/18 10:53:11;;;;;;;12.03;2.83;;;;;;;;;;747333;184;659606;-60
2022/02/18 10:55:43;;;;;;;8.23;2.55;;;;;;;;;;753071;185;632365;-60
2022/02/18 10:58:09;;;;;;;11.97;2.83;;;;;;;;;;763621;184;619500;-60
2022/02/18 11:00:35;;;;;;;6.23;3.10;;;;;;;;;;753816;184;630203;-60
2022/02/18 11:03:01;;;;;;;7.93;2.97;;;;;;;;;;760734;184;625052;-60
2022/02/18 11:05:27;;;;;;;12.63;3.50;;;;;;;;;;760624;184;627071;-60
2022/02/18 11:07:52;;;;;;;10.17;2.80;;;;;;;;;;752302;184;635033;-60
2022/02/18 11:10:24;;;;;;;8.00;3.20;;;;;;;;;;746181;184;623937;-59
2022/02/18 11:12:51;;;;;;;7.33;3.20;;;;;;;;;;756447;186;629581;-60
2022/02/18 11:15:17;;;;;;;15.57;3.20;;;;;;;;;;756612;185;630104;-60
2022/02/18 11:17:43;;;;;;;4.33;2.07;;;;;;;;;;753871;184;624002;-60
2022/02/18 11:20:12;;;;;;;5.20;2.50;;;;;;;;;;754355;184;629381;-60
2022/02/18 11:22:35;;;;;;;7.80;2.90;;;;;;;;;;752363;184;619005;-60
2022/02/18 11:25:01;;;;;;;6.40;2.57;;;;;;;;;;751171;184;626229;-60
2022/02/18 11:27:29;;;;;;;5.63;2.13;;;;;;;;;;748933;184;636892;-60
2022/02/18 11:29:53;;;;;;;6.60;3.20;;;;;;;;;;759838;185;626394;-60
2022/02/18 11:32:21;;;;;;;8.10;2.40;;;;;;;;;;763850;182;633001;-60
2022/02/18 11:34:50;;;;;;;7.33;2.97;;;;;;;;;;756814;183;626720;-60
2022/02/18 11:37:34;;;;;;;8.77;3.50;;;;;;;;;;758598;183;615939;-61
2022/02/18 11:40:17;;;;;;;4.37;2.10;;;;;;;;;;761621;183;625371;-60
2022/02/18 11:42:42;;;;;;;10.33;3.40;;;;;;;;;;763556;183;638464;-60
2022/02/18 11:45:09;;;;;;;11.73;3.73;;;;;;;;;;760360;183;618370;-60
2022/02/18 11:47:35;;;;;;;8.87;3.40;;;;;;;;;;752268;184;629731;-59
2022/02/18 11:50:01;;;;;;;12.70;3.60;;;;;;;;;;757641;183;626384;-59
2022/02/18 11:52:27;;;;;;;11.93;3.10;;;;;;;;;;756831;184;638238;-60
2022/02/18 11:54:53;;;;;;;9.83;3.50;;;;;;;;;;757534;183;639477;-63
2022/02/18 11:57:18;;;;;;;8.20;3.37;;;;;;;;;;752952;183;633494;-60
2022/02/18 12:00:00;;;;;;;8.10;3.17;;;;;;;;;;754525;184;625381;-60
2022/02/18 12:02:32;;;;;;;11.47;3.67;;;;;;;;;;754387;184;624969;-59
2022/02/18 12:05:00;;;;;;;11.13;3.40;;;;;;;;;;756165;186;631675;-60
2022/02/18 12:07:26;;;;;;;10.83;3.30;;;;;;;;;;753314;184;622410;-60
2022/02/18 12:09:55;;;;;;;5.70;3.57;;;;;;;;;;749991;185;648639;-60
2022/02/18 12:12:21;;;;;;;8.17;2.90;;;;;;;;;;752121;184;638143;-59
2022/02/18 12:14:47;;;;;;;7.00;2.90;;;;;;;;;;756104;184;640346;-60
2022/02/18 12:17:13;;;;;;;10.30;3.43;;;;;;;;;;754281;184;625752;-60
2022/02/18 12:19:39;;;;;;;10.47;2.53;;;;;;;;;;755214;184;633824;-60
2022/02/18 12:22:05;;;;;;;11.30;3.60;;;;;;;;;;757885;185;637108;-60
2022/02/18 12:24:45;;;;;;;10.93;4.00;;;;;;;;;;752768;184;633260;-60
2022/02/18 12:27:17;;;;;;;14.53;2.70;;;;;;;;;;752581;185;627172;-60
2022/02/18 12:29:43;;;;;;;9.33;3.27;;;;;;;;;;753113;184;658361;-60
2022/02/18 12:32:09;;;;;;;6.00;2.80;;;;;;;;;;760354;184;627716;-60
2022/02/18 12:34:35;;;;;;;7.97;2.47;;;;;;;;;;765577;179;635690;-60
2022/02/18 12:37:00;;;;;;;8.93;3.00;;;;;;;;;;757471;184;630525;-60
2022/02/18 12:39:32;;;;;;;9.53;2.33;;;;;;;;;;755907;184;638377;-60
2022/02/18 12:41:58;;;;;;;7.40;2.73;;;;;;;;;;759991;183;620071;-60
2022/02/18 12:44:24;;;;;;;10.93;3.57;;;;;;;;;;756792;183;625803;-60
2022/02/18 12:46:50;;;;;;;10.50;3.80;;;;;;;;;;759647;183;615290;-60
2022/02/18 12:49:15;;;;;;;9.13;2.93;;;;;;;;;;756547;184;621685;-60
2022/02/18 12:51:41;;;;;;;16.23;3.07;;;;;;;;;;753688;183;622686;-60
2022/02/18 12:54:07;;;;;;;5.90;3.50;;;;;;;;;;756543;184;622829;-60
2022/02/18 12:56:33;;;;;;;12.60;3.20;;;;;;;;;;756635;184;609000;-60
2022/02/18 12:58:59;;;;;;;7.07;2.67;;;;;;;;;;760144;184;630642;-60
2022/02/18 13:01:25;;;;;;;8.03;2.30;;;;;;;;;;758550;184;630061;-61
2022/02/18 13:03:51;;;;;;;7.30;2.70;;;;;;;;;;756574;184;615924;-60
2022/02/18 13:06:16;;;;;;;12.03;3.87;;;;;;;;;;758283;184;620100;-61
2022/02/18 13:08:42;;;;;;;11.93;3.60;;;;;;;;;;756077;184;617361;-60
2022/02/18 13:11:09;;;;;;;10.87;2.50;;;;;;;;;;752405;184;627529;-61
2022/02/18 13:13:35;;;;;;;14.27;3.87;;;;;;;;;;760065;183;622894;-59
2022/02/18 13:16:01;;;;;;;11.07;2.80;;;;;;;;;;756116;184;664936;-60
2022/02/18 13:18:26;;;;;;;9.90;3.20;;;;;;;;;;754239;183;623534;-60
2022/02/18 13:20:52;;;;;;;11.93;4.10;;;;;;;;;;752624;185;635134;-60
2022/02/18 13:23:19;;;;;;;13.33;3.13;;;;;;;;;;758973;184;619162;-60
2022/02/18 13:25:47;;;;;;;10.73;3.63;;;;;;;;;;756850;184;629439;-60
2022/02/18 13:28:14;;;;;;;13.90;4.13;;;;;;;;;;750625;184;619076;-60
2022/02/18 13:30:40;;;;;;;11.87;3.17;;;;;;;;;;755992;184;617338;-60
2022/02/18 13:33:06;;;;;;;11.10;3.10;;;;;;;;;;752662;185;626190;-60
2022/02/18 13:35:31;;;;;;;8.60;3.80;;;;;;;;;;753322;183;630559;-60
2022/02/18 13:37:57;;;;;;;18.90;3.70;;;;;;;;;;754346;184;642282;-60
2022/02/18 13:40:23;;;;;;;11.30;3.17;;;;;;;;;;761768;179;815109;-60
2022/02/18 13:42:49;;;;;;;10.27;2.93;;;;;;;;;;757346;184;626746;-60
2022/02/18 13:45:15;;;;;;;12.67;3.73;;;;;;;;;;755693;184;622015;-60
2022/02/18 13:47:41;;;;;;;11.00;3.43;;;;;;;;;;762800;184;630988;-62
2022/02/18 13:50:07;;;;;;;10.73;3.53;;;;;;;;;;753120;183;629655;-60
2022/02/18 13:52:33;;;;;;;15.80;4.80;;;;;;;;;;756805;184;624009;-59
2022/02/18 13:54:58;;;;;;;12.23;4.47;;;;;;;;;;761784;182;625908;-59
2022/02/18 13:57:24;;;;;;;13.57;3.80;;;;;;;;;;754965;183;633759;-60
2022/02/18 13:59:50;;;;;;;10.73;3.23;;;;;;;;;;756225;183;635882;-60
2022/02/18 14:02:16;;;;;;;20.40;6.27;;;;;;;;;;760594;183;624933;-61
2022/02/18 14:04:42;;;;;;;9.63;3.10;;;;;;;;;;760953;184;634898;-59
2022/02/18 14:07:08;;;;;;;19.13;4.47;;;;;;;;;;756090;183;615095;-60
2022/02/18 14:09:38;;;;;;;12.07;3.43;;;;;;;;;;755825;183;635474;-60
2022/02/18 14:12:04;;;;;;;18.20;4.17;;;;;;;;;;758862;184;634711;-60
2022/02/18 14:14:30;;;;;;;18.30;4.13;;;;;;;;;;758841;184;636774;-60
2022/02/18 14:16:56;;;;;;;8.90;3.20;;;;;;;;;;755026;184;631535;-62